Time;durP1;ratioP1;P1;durP2;ratioP2;P2;SDS_P1;SDS_P2;PMS_P1;PMS_P2;Temp;Humidity;BMP_temperature;BMP_pressure;BME280_temperature;BME280_humidity;BME280_pressure;Samples;Min_cycle;Max_cycle;Signal;HPM_P1;HPM_P2
2023/03/03 00:00:53;;;;;;;;;73.33;55.33;;;;;3.62;100.00;99785.13;6314104;20;3636825;-47
2023/03/03 00:03:26;;;;;;;;;73.33;54.33;;;;;3.65;100.00;99785.03;6317475;20;3644157;-48
2023/03/03 00:05:55;;;;;;;;;72.00;54.67;;;;;3.63;100.00;99781.53;6317433;20;3634704;-47
2023/03/03 00:08:26;;;;;;;;;75.67;56.00;;;;;3.63;100.00;99786.00;6315611;20;3643098;-48
2023/03/03 00:10:55;;;;;;;;;69.67;53.67;;;;;3.62;100.00;99782.47;6316091;20;3631700;-47
2023/03/03 00:13:28;;;;;;;;;68.33;52.67;;;;;3.59;100.00;99781.72;6316256;20;2871138;-45
2023/03/03 00:16:35;;;;;;;;;140.50;111.50;;;;;3.56;100.00;99781.81;6306272;20;1954525;-45
2023/03/03 00:19:20;;;;;;;;;72.33;55.00;;;;;3.48;100.00;99787.34;6283314;20;2893228;-45
2023/03/03 00:21:52;;;;;;;;;73.67;55.67;;;;;3.40;100.00;99779.63;6316274;20;3650273;-46
2023/03/03 00:24:36;;;;;;;;;69.67;54.00;;;;;3.35;100.00;99767.44;6309686;20;3642965;-47
2023/03/03 00:27:36;;;;;;;;;71.67;56.67;;;;;3.47;100.00;99774.97;6312060;20;2881784;-45
2023/03/03 00:30:26;;;;;;;;;77.67;59.00;;;;;3.25;100.00;99770.34;6313109;20;2895177;-45
2023/03/03 00:32:55;;;;;;;;;71.50;56.00;;;;;3.42;100.00;99782.22;6315132;20;2869065;-46
2023/03/03 00:35:38;;;;;;;;;67.00;47.67;;;;;3.47;100.00;99773.19;6284990;20;3650251;-45
2023/03/03 00:38:17;;;;;;;;;76.67;57.67;;;;;3.52;100.00;99776.56;6315546;20;3645097;-45
2023/03/03 00:40:48;;;;;;;;;65.67;50.67;;;;;3.50;100.00;99775.78;6313611;20;2880637;-49
2023/03/03 00:43:28;;;;;;;;;77.00;57.67;;;;;3.45;100.00;99760.88;6314416;20;3652511;-47
2023/03/03 00:45:57;;;;;;;;;75.00;58.50;;;;;3.50;100.00;99769.56;6311071;20;2879611;-47
2023/03/03 00:48:41;;;;;;;;;76.33;59.67;;;;;3.50;100.00;99766.91;6283807;20;3630498;-48
2023/03/03 00:51:31;;;;;;;;;75.33;55.67;;;;;3.30;100.00;99760.47;6315261;20;3643049;-49
2023/03/03 00:54:01;;;;;;;;;70.67;55.67;;;;;3.42;100.00;99758.34;6311653;20;2876909;-46
2023/03/03 00:56:31;;;;;;;;;72.00;55.33;;;;;3.35;100.00;99759.47;6315043;20;3640885;-48
2023/03/03 00:59:00;;;;;;;;;74.33;57.00;;;;;3.46;100.00;99760.84;6315741;20;3637753;-50
2023/03/03 01:01:30;;;;;;;;;78.33;58.67;;;;;3.47;100.00;99756.41;6312509;20;2890017;-49
2023/03/03 01:03:59;;;;;;;;;82.33;61.33;;;;;3.46;100.00;99755.53;6314122;20;3641026;-50
2023/03/03 01:06:29;;;;;;;;;82.00;62.00;;;;;3.38;100.00;99754.91;6314037;20;3627373;-46
2023/03/03 01:08:59;;;;;;;;;83.67;63.00;;;;;3.30;100.00;99752.50;6314350;20;3644035;-48
2023/03/03 01:11:28;;;;;;;;;77.67;59.67;;;;;3.31;100.00;99748.06;6312370;20;3633650;-47
2023/03/03 01:13:58;;;;;;;;;76.67;58.67;;;;;3.04;100.00;99744.47;6314702;20;3639867;-47
2023/03/03 01:16:28;;;;;;;;;70.67;55.67;;;;;3.02;100.00;99747.16;6278616;20;2885920;-48
2023/03/03 01:18:57;;;;;;;;;77.00;58.67;;;;;2.85;100.00;99744.16;6311234;20;2881682;-46
2023/03/03 01:21:27;;;;;;;;;78.00;57.67;;;;;2.99;100.00;99741.09;6312229;20;3635792;-46
2023/03/03 01:23:57;;;;;;;;;77.67;58.33;;;;;3.13;100.00;99746.81;6313830;20;2873361;-49
2023/03/03 01:26:26;;;;;;;;;79.00;60.33;;;;;3.14;100.00;99745.94;6313987;20;3643065;-51
2023/03/03 01:28:56;;;;;;;;;73.00;51.33;;;;;2.97;100.00;99734.94;6316142;20;2883750;-45
2023/03/03 01:31:26;;;;;;;;;79.67;60.00;;;;;3.07;100.00;99729.31;6311831;20;3626349;-48
2023/03/03 01:33:56;;;;;;;;;82.00;60.33;;;;;3.22;100.00;99738.59;6313306;20;3663890;-46
2023/03/03 01:36:28;;;;;;;;;78.00;56.00;;;;;3.25;100.00;99733.19;6312338;20;3642961;-46
2023/03/03 01:38:57;;;;;;;;;76.00;56.33;;;;;3.26;100.00;99734.91;6314276;20;3639884;-47
2023/03/03 01:41:31;;;;;;;;;74.00;56.33;;;;;3.26;100.00;99734.06;6309982;20;3636757;-46
2023/03/03 01:44:01;;;;;;;;;75.00;55.33;;;;;3.34;100.00;99724.06;6314042;20;3630891;-46
2023/03/03 01:47:04;;;;;;;;;77.67;56.67;;;;;3.23;100.00;99720.91;6312794;20;3646109;-46
2023/03/03 01:49:40;;;;;;;;;74.00;56.00;;;;;3.30;100.00;99720.66;6314953;20;3647196;-48
2023/03/03 01:52:40;;;;;;;;;73.00;56.67;;;;;3.21;100.00;99718.31;6312226;20;2887809;-45
2023/03/03 01:55:21;;;;;;;;;64.50;52.50;;;;;2.89;100.00;99718.41;6312022;20;2853849;-47
2023/03/03 01:58:18;;;;;;;;;73.00;54.00;;;;;2.40;100.00;99720.69;6282306;20;3646097;-45
2023/03/03 02:00:59;;;;;;;;;75.00;56.67;;;;;2.35;100.00;99728.75;6311662;20;2892191;-48
2023/03/03 02:03:30;;;;;;;;;73.67;56.67;;;;;2.32;100.00;99723.53;6312329;20;2884792;-45
2023/03/03 02:06:08;;;;;;;;;70.67;55.00;;;;;2.44;100.00;99724.97;6311500;20;3636741;-46
2023/03/03 02:09:36;;;;;;;;;74.33;57.00;;;;;2.16;100.00;99728.41;6311336;20;3636837;-47
2023/03/03 02:12:13;;;;;;;;;72.00;56.67;;;;;2.31;100.00;99718.28;6311356;20;3626438;-46
2023/03/03 02:14:43;;;;;;;;;78.67;58.00;;;;;2.30;100.00;99717.41;6311647;20;3633607;-47
2023/03/03 02:17:12;;;;;;;;;69.67;52.67;;;;;1.89;100.00;99713.22;6313402;20;2876410;-45
2023/03/03 02:20:06;;;;;;;;;80.33;60.33;;;;;1.61;100.00;99713.06;6312717;20;3644108;-45
2023/03/03 02:22:52;;;;;;;;;79.67;61.00;;;;;1.36;100.00;99707.47;6309226;20;2869118;-46
2023/03/03 02:25:42;;;;;;;;;76.33;58.33;;;;;1.23;100.00;99712.19;6310618;20;3646096;-48
2023/03/03 02:28:12;;;;;;;;;78.33;58.00;;;;;1.12;100.00;99711.56;6309972;20;3643098;-47
2023/03/03 02:30:41;;;;;;;;;75.00;55.33;;;;;1.35;100.00;99711.03;6312654;20;2890479;-47
2023/03/03 02:33:11;;;;;;;;;77.00;60.00;;;;;1.45;100.00;99712.53;6309788;20;3639990;-46
2023/03/03 02:35:41;;;;;;;;;72.00;56.33;;;;;1.28;100.00;99715.59;6312337;20;3641633;-49
2023/03/03 02:38:33;;;;;;;;;75.67;58.00;;;;;1.27;100.00;99708.56;6313651;20;2886784;-46
2023/03/03 02:41:12;;;;;;;;;79.33;58.33;;;;;1.38;100.00;99706.53;6310705;20;3653415;-45
2023/03/03 02:44:06;;;;;;;;;77.33;58.33;;;;;1.36;100.00;99705.69;6312976;20;3631496;-45
2023/03/03 02:46:40;;;;;;;;;81.00;60.33;;;;;1.39;100.00;99702.97;6311667;20;3629469;-45
2023/03/03 02:49:16;;;;;;;;;82.33;62.33;;;;;1.44;100.00;99695.78;6308440;20;2891016;-45
2023/03/03 02:51:46;;;;;;;;;83.00;62.67;;;;;1.41;100.00;99701.16;6309348;20;3643354;-46
2023/03/03 02:54:19;;;;;;;;;82.33;61.00;;;;;1.45;100.00;99701.94;6312689;20;3632541;-47
2023/03/03 02:56:49;;;;;;;;;81.00;61.33;;;;;1.30;100.00;99695.28;6310728;20;3649275;-46
2023/03/03 02:59:19;;;;;;;;;78.00;60.33;;;;;1.06;100.00;99688.78;6310875;20;3639859;-51
2023/03/03 03:01:49;;;;;;;;;83.00;59.33;;;;;0.73;100.00;99691.25;6313705;20;3653408;-45
2023/03/03 03:04:26;;;;;;;;;83.33;62.67;;;;;0.89;100.00;99686.50;6315361;20;2895335;-46
2023/03/03 03:06:55;;;;;;;;;68.50;55.00;;;;;0.87;100.00;99688.34;6312949;20;2500285;-47
2023/03/03 03:09:27;;;;;;;;;88.00;62.67;;;;;1.22;100.00;99691.94;6287943;20;3631526;-50
2023/03/03 03:11:58;;;;;;;;;84.00;60.33;;;;;1.26;100.00;99690.94;6316225;20;3651330;-45
2023/03/03 03:14:28;;;;;;;;;76.00;56.33;;;;;1.33;100.00;99681.97;6318886;20;2886800;-45
2023/03/03 03:16:57;;;;;;;;;80.33;63.00;;;;;1.37;100.00;99683.66;6315814;20;3629522;-47
2023/03/03 03:19:28;;;;;;;;;86.33;62.00;;;;;1.47;100.00;99690.44;6319060;20;3661810;-45
2023/03/03 03:21:57;;;;;;;;;85.67;63.67;;;;;1.50;100.00;99685.09;6317593;20;3665952;-45
2023/03/03 03:24:27;;;;;;;;;84.33;62.67;;;;;1.53;100.00;99682.34;6283379;20;3658178;-46
2023/03/03 03:26:56;;;;;;;;;77.67;60.00;;;;;1.23;100.00;99686.59;6316946;20;3628405;-45
2023/03/03 03:29:26;;;;;;;;;76.67;58.33;;;;;1.44;100.00;99681.69;6319243;20;3638948;-45
2023/03/03 03:31:55;;;;;;;;;65.00;47.00;;;;;1.50;100.00;99685.09;6315017;20;2880533;-46
2023/03/03 03:34:25;;;;;;;;;81.00;58.67;;;;;1.65;100.00;99683.81;6315928;20;3645042;-46
2023/03/03 03:36:54;;;;;;;;;80.33;59.00;;;;;1.40;100.00;99683.56;6317138;20;3647119;-50
2023/03/03 03:39:24;;;;;;;;;83.67;62.00;;;;;1.30;100.00;99679.41;6317308;20;3655466;-47
2023/03/03 03:41:53;;;;;;;;;90.67;67.00;;;;;1.44;100.00;99672.00;6317357;20;3640867;-46
2023/03/03 03:44:24;;;;;;;;;88.00;65.33;;;;;1.54;100.00;99667.34;6314087;20;3636819;-46
2023/03/03 03:46:53;;;;;;;;;85.33;62.33;;;;;1.51;100.00;99667.44;6316256;20;3648154;-46
2023/03/03 03:49:23;;;;;;;;;86.67;63.33;;;;;1.59;100.00;99668.09;6316512;20;3672142;-46
2023/03/03 03:51:52;;;;;;;;;82.33;62.33;;;;;1.51;100.00;99665.66;6280516;20;3653410;-45
2023/03/03 03:54:22;;;;;;;;;77.67;57.00;;;;;1.40;100.00;99664.19;6314428;20;3642967;-44
2023/03/03 03:56:53;;;;;;;;;81.33;59.33;;;;;1.22;100.00;99668.13;6315484;20;2871220;-45
2023/03/03 03:59:22;;;;;;;;;85.33;66.33;;;;;0.95;100.00;99665.25;6315979;20;3639924;-44
2023/03/03 04:01:52;;;;;;;;;88.33;67.33;;;;;0.96;100.00;99651.09;6314901;20;3648257;-45
2023/03/03 04:04:22;;;;;;;;;80.00;64.33;;;;;1.00;100.00;99660.72;6315464;20;3627365;-45
2023/03/03 04:06:51;;;;;;;;;89.33;67.67;;;;;1.10;100.00;99659.56;6316276;20;3632635;-45
2023/03/03 04:09:21;;;;;;;;;88.67;64.67;;;;;1.13;100.00;99658.63;6315895;20;3643081;-45
2023/03/03 04:11:50;;;;;;;;;89.00;64.00;;;;;1.12;100.00;99648.97;6315683;20;2885775;-46
2023/03/03 04:14:20;;;;;;;;;79.00;59.00;;;;;0.93;100.00;99656.47;6313148;20;3637872;-45
2023/03/03 04:16:49;;;;;;;;;77.67;61.33;;;;;0.49;100.00;99653.03;6314930;20;3630568;-44
2023/03/03 04:19:19;;;;;;;;;76.50;59.50;;;;;0.27;100.00;99652.59;6317329;20;2877453;-47
2023/03/03 04:21:48;;;;;;;;;79.33;54.00;;;;;0.38;100.00;99647.97;6284636;20;3652398;-44
2023/03/03 04:24:18;;;;;;;;;91.67;69.67;;;;;0.62;100.00;99649.22;6311957;20;3643009;-44
2023/03/03 04:26:48;;;;;;;;;93.33;70.00;;;;;0.98;100.00;99651.09;6317002;20;3643017;-46
2023/03/03 04:29:17;;;;;;;;;94.00;69.33;;;;;1.23;100.00;99648.72;6314758;20;3658674;-46
2023/03/03 04:31:47;;;;;;;;;90.00;69.67;;;;;0.93;100.00;99650.31;6312245;20;3645071;-45
2023/03/03 04:34:16;;;;;;;;;93.33;69.00;;;;;0.88;100.00;99647.78;6313337;20;3650937;-46
2023/03/03 04:36:46;;;;;;;;;90.33;65.33;;;;;0.88;100.00;99640.72;6314607;20;3643065;-46
2023/03/03 04:39:16;;;;;;;;;99.00;70.67;;;;;0.75;100.00;99646.31;6315796;20;3662756;-46
2023/03/03 04:41:43;;;;;;;;;94.00;62.50;;;;;0.51;100.00;99638.03;6306675;20;2556552;-45
2023/03/03 04:44:14;;;;;;;;;144.75;113.50;;;;;0.26;100.00;99642.06;6285079;20;3731645;-50
2023/03/03 04:46:45;;;;;;;;;135.50;103.75;;;;;0.09;100.00;99638.00;6312922;20;3729539;-47
2023/03/03 04:49:14;;;;;;;;;105.00;86.00;;;;;0.02;100.00;99641.66;6283024;20;3690919;-45
2023/03/03 04:51:44;;;;;;;;;117.33;89.00;;;;;0.09;100.00;99640.63;6281691;20;3692036;-47
2023/03/03 04:54:14;;;;;;;;;113.00;90.33;;;;;0.01;100.00;99631.16;6282814;20;3677359;-45
2023/03/03 04:56:44;;;;;;;;;109.67;88.33;;;;;0.12;100.00;99640.56;6283589;20;3691903;-46
2023/03/03 04:59:14;;;;;;;;;106.00;88.33;;;;;0.14;100.00;99641.41;6282518;20;3680499;-46
2023/03/03 05:01:45;;;;;;;;;105.33;80.67;;;;;-0.05;100.00;99642.69;6280832;20;3688921;-46
2023/03/03 05:04:14;;;;;;;;;99.33;77.67;;;;;-0.13;100.00;99640.19;6283938;20;3664862;-47
2023/03/03 05:06:44;;;;;;;;;101.67;78.33;;;;;-0.09;100.00;99649.78;6315019;20;3687824;-45
2023/03/03 05:09:14;;;;;;;;;99.67;72.00;;;;;0.02;100.00;99652.22;6278878;20;3663825;-45
2023/03/03 05:11:43;;;;;;;;;94.00;68.33;;;;;-0.03;100.00;99648.78;6313444;20;3642310;-46
2023/03/03 05:14:13;;;;;;;;;86.33;67.00;;;;;0.11;100.00;99654.69;6315846;20;3636741;-46
2023/03/03 05:16:42;;;;;;;;;86.33;60.67;;;;;0.07;100.00;99642.44;6314719;20;3658630;-47
2023/03/03 05:19:12;;;;;;;;;81.00;59.67;;;;;0.12;100.00;99650.28;6311748;20;2884811;-46
2023/03/03 05:21:42;;;;;;;;;76.00;56.33;;;;;0.09;100.00;99656.47;6312853;20;2885842;-45
2023/03/03 05:24:13;;;;;;;;;75.00;54.67;;;;;-0.17;100.00;99653.47;6311756;20;2900361;-46
2023/03/03 05:26:43;;;;;;;;;80.67;59.33;;;;;-0.19;100.00;99655.25;6313381;20;3651459;-48
2023/03/03 05:29:12;;;;;;;;;75.67;55.33;;;;;-0.25;100.00;99662.38;6313498;20;3642990;-46
2023/03/03 05:31:42;;;;;;;;;73.00;56.00;;;;;-0.37;100.00;99654.72;6309193;20;2880491;-45
2023/03/03 05:34:14;;;;;;;;;80.00;60.33;;;;;-0.20;100.00;99651.75;6314365;20;3634639;-47
2023/03/03 05:36:41;;;;;;;;;72.50;56.50;;;;;-0.10;100.00;99660.38;6308332;20;2500409;-47
2023/03/03 05:39:11;;;;;;;;;106.67;82.00;;;;;-0.11;100.00;99655.97;6280988;20;3695076;-48
2023/03/03 05:41:41;;;;;;;;;84.33;62.00;;;;;0.20;100.00;99666.81;6280767;20;3645084;-44
2023/03/03 05:44:11;;;;;;;;;90.00;65.00;;;;;0.16;100.00;99660.75;6314806;20;3655493;-49
2023/03/03 05:46:41;;;;;;;;;82.67;62.00;;;;;0.34;100.00;99662.16;6310097;20;3639073;-47
2023/03/03 05:49:11;;;;;;;;;91.00;63.00;;;;;0.45;100.00;99664.56;6314600;20;3644047;-45
2023/03/03 05:51:40;;;;;;;;;88.67;65.33;;;;;0.59;100.00;99665.13;6307042;20;3645098;-47
2023/03/03 05:54:10;;;;;;;;;89.00;68.67;;;;;0.41;100.00;99668.16;6314874;20;3650277;-48
2023/03/03 05:56:40;;;;;;;;;98.33;70.33;;;;;0.53;100.00;99672.34;6314820;20;3650290;-49
2023/03/03 05:59:09;;;;;;;;;90.00;68.33;;;;;0.61;100.00;99667.75;6310855;20;3640133;-44
2023/03/03 06:01:39;;;;;;;;;93.33;68.00;;;;;0.64;100.00;99673.84;6310287;20;3645208;-46
2023/03/03 06:04:08;;;;;;;;;87.00;69.00;;;;;0.92;100.00;99670.56;6313565;20;2872268;-46
2023/03/03 06:06:38;;;;;;;;;88.33;63.33;;;;;1.00;100.00;99676.56;6314568;20;3693066;-46
2023/03/03 06:09:08;;;;;;;;;108.00;93.33;;;;;1.03;100.00;99679.16;6279021;20;3694060;-47
2023/03/03 06:11:38;;;;;;;;;103.00;82.67;;;;;1.27;100.00;99675.06;6278011;20;3686821;-47
2023/03/03 06:14:08;;;;;;;;;102.33;80.67;;;;;1.44;100.00;99677.28;6282226;20;3700300;-48
2023/03/03 06:16:40;;;;;;;;;95.00;71.00;;;;;1.75;100.00;99680.03;6284092;20;3652359;-49
2023/03/03 06:19:10;;;;;;;;;86.00;63.33;;;;;1.62;100.00;99683.91;6315245;20;3649260;-48
2023/03/03 06:21:40;;;;;;;;;77.67;60.33;;;;;1.83;97.00;99685.13;6313203;20;2890002;-46
2023/03/03 06:24:09;;;;;;;;;77.33;59.33;;;;;1.62;95.40;99683.91;6311195;20;3621121;-48
2023/03/03 06:26:39;;;;;;;;;92.33;68.33;;;;;1.72;95.06;99687.19;6314491;20;3649703;-47
2023/03/03 06:29:09;;;;;;;;;83.67;64.00;;;;;1.71;95.49;99693.38;6311705;20;3640923;-47
2023/03/03 06:31:38;;;;;;;;;73.67;56.00;;;;;1.66;94.19;99695.25;6313626;20;2886869;-47
2023/03/03 06:34:08;;;;;;;;;89.00;62.00;;;;;1.48;95.62;99697.47;6311641;20;3660711;-48
2023/03/03 06:36:37;;;;;;;;;90.67;67.67;;;;;1.68;97.22;99688.16;6312817;20;3660695;-49
2023/03/03 06:39:07;;;;;;;;;100.33;79.00;;;;;2.14;98.20;99686.97;6313233;20;3691915;-46
2023/03/03 06:41:37;;;;;;;;;107.00;90.67;;;;;2.40;98.84;99684.47;6279321;20;3693042;-46
2023/03/03 06:44:07;;;;;;;;;100.67;78.67;;;;;2.59;99.84;99686.59;6282143;20;3687777;-46
2023/03/03 06:46:37;;;;;;;;;107.00;90.67;;;;;2.82;99.96;99691.22;6278474;20;3687791;-49
2023/03/03 06:49:07;;;;;;;;;101.67;88.67;;;;;3.48;97.84;99691.81;6282702;20;3682984;-47
2023/03/03 06:51:39;;;;;;;;;107.33;88.33;;;;;3.68;96.20;99699.97;6278900;20;3682541;-46
2023/03/03 06:54:16;;;;;;;;;102.33;87.67;;;;;3.88;97.14;99690.47;6278408;20;3694031;-45
2023/03/03 06:56:47;;;;;;;;;122.67;98.33;;;;;3.74;96.17;99691.81;6280103;20;3702339;-48
2023/03/03 06:59:20;;;;;;;;;93.33;81.00;;;;;3.84;96.19;99695.00;6279817;20;3656602;-44
2023/03/03 07:01:51;;;;;;;;;104.33;90.33;;;;;4.12;96.05;99691.41;6314195;20;3688887;-45
2023/03/03 07:04:32;;;;;;;;;100.67;82.67;;;;;4.45;94.16;99705.28;6278441;20;3690942;-46
2023/03/03 07:07:17;;;;;;;;;100.33;84.33;;;;;4.44;95.45;99708.00;6279680;20;3690905;-46
2023/03/03 07:09:52;;;;;;;;;100.33;78.33;;;;;4.69;94.16;99715.97;6277934;20;3697198;-48
2023/03/03 07:12:29;;;;;;;;;87.67;75.67;;;;;4.66;95.73;99721.38;6280027;20;3641929;-46
2023/03/03 07:15:16;;;;;;;;;89.00;68.00;;;;;4.44;96.43;99716.84;6314217;20;3662803;-46
2023/03/03 07:17:50;;;;;;;;;94.67;80.67;;;;;4.49;96.06;99714.88;6276793;20;3672135;-46
2023/03/03 07:20:32;;;;;;;;;175.50;149.75;;;;;4.82;94.73;99717.22;6278462;20;4485693;-46
2023/03/03 07:23:18;;;;;;;;;168.50;146.50;;;;;4.81;94.03;99711.03;6269517;20;1958707;-46
2023/03/03 07:25:50;;;;;;;;;129.25;122.00;;;;;4.70;94.46;99718.53;6277894;20;3692029;-48
2023/03/03 07:28:28;;;;;;;;;147.50;121.75;;;;;5.03;94.48;99724.41;6280547;20;4494013;-46
2023/03/03 07:30:59;;;;;;;;;154.75;129.50;;;;;5.71;92.27;99721.69;6277826;20;4477351;-49
2023/03/03 07:33:37;;;;;;;;;133.50;118.00;;;;;5.84;92.00;99717.59;6312327;20;4487788;-48
2023/03/03 07:36:33;;;;;;;;;169.25;145.00;;;;;6.57;90.49;99726.06;6277236;20;4491982;-47
2023/03/03 07:39:39;;;;;;;;;116.50;95.38;;;;;6.81;89.76;99724.09;6272811;20;3711775;-46
2023/03/03 07:42:26;;;;;;;;;128.00;104.50;;;;;7.12;87.05;99734.22;6273256;20;1960920;-48
2023/03/03 07:45:00;;;;;;;;;147.00;129.67;;;;;7.50;86.95;99734.19;6279519;20;3723171;-49
2023/03/03 07:47:35;;;;;;;;;121.67;105.67;;;;;7.74;85.64;99732.16;6280198;20;3725373;-47
2023/03/03 07:50:20;;;;;;;;;97.00;82.67;;;;;7.35;86.27;99737.63;6278425;20;3677413;-45
2023/03/03 07:52:59;;;;;;;;;91.67;75.33;;;;;7.15;87.19;99738.56;6288548;20;3677360;-49
2023/03/03 07:55:36;;;;;;;;;87.33;71.00;;;;;7.00;87.19;99738.34;6286934;20;3672180;-46
2023/03/03 07:58:15;;;;;;;;;86.00;69.00;;;;;7.36;87.26;99736.69;6283047;20;3647206;-47
2023/03/03 08:01:33;;;;;;;;;92.50;72.50;;;;;7.18;87.06;99747.28;6284067;20;2721140;-48
2023/03/03 08:04:23;;;;;;;;;89.00;72.00;;;;;7.63;86.91;99734.47;6290455;20;4429466;-46
2023/03/03 08:06:57;;;;;;;;;89.00;74.00;;;;;8.45;85.35;99740.19;6316531;20;3664840;-48
2023/03/03 08:09:43;;;;;;;;;71.00;53.00;;;;;8.75;83.29;99743.06;6282737;20;3627447;-48
2023/03/03 08:12:46;;;;;;;;;74.33;55.00;;;;;9.07;83.88;99736.91;6314968;20;3645077;-51
2023/03/03 08:15:31;;;;;;;;;71.67;54.67;;;;;9.62;83.51;99733.84;6317484;20;3635670;-49
2023/03/03 08:18:01;;;;;;;;;73.33;55.33;;;;;9.60;83.50;99730.38;6286633;20;3649282;-50
2023/03/03 08:20:55;;;;;;;;;62.00;47.33;;;;;9.87;81.23;99739.53;6280636;20;3619096;-51
2023/03/03 08:23:25;;;;;;;;;63.33;48.00;;;;;10.68;79.07;99736.53;6314611;20;3630471;-48
2023/03/03 08:25:55;;;;;;;;;51.00;41.00;;;;;10.54;79.74;99736.50;6316588;20;2862839;-49
2023/03/03 08:28:24;;;;;;;;;49.33;40.00;;;;;10.63;78.29;99730.56;6318833;20;2857027;-48
2023/03/03 08:30:54;;;;;;;;;52.33;42.67;;;;;10.75;76.45;99734.34;6316007;20;2853575;-50
2023/03/03 08:33:44;;;;;;;;;48.67;41.00;;;;;10.84;76.03;99716.78;6315677;20;2852443;-49
2023/03/03 08:36:14;;;;;;;;;51.33;42.67;;;;;10.69;75.24;99721.28;6317718;20;2867016;-48
2023/03/03 08:38:43;;;;;;;;;52.67;43.67;;;;;10.41;75.74;99722.97;6316220;20;3613941;-47
2023/03/03 08:41:13;;;;;;;;;51.00;41.50;;;;;10.61;74.37;99719.09;6314500;20;2851347;-49
2023/03/03 08:43:44;;;;;;;;;49.00;38.33;;;;;10.10;75.72;99718.53;6284743;20;2853489;-47
2023/03/03 08:46:13;;;;;;;;;46.67;38.00;;;;;10.82;74.05;99726.75;6317608;20;3605494;-49
2023/03/03 08:48:42;;;;;;;;;49.50;39.50;;;;;10.44;74.48;99727.28;6316774;20;2842030;-48
2023/03/03 08:51:11;;;;;;;;;42.00;36.50;;;;;10.52;75.62;99727.69;6285811;20;2845162;-46
2023/03/03 08:53:40;;;;;;;;;44.33;36.67;;;;;10.23;75.03;99730.25;6285319;20;2859689;-48
2023/03/03 08:56:09;;;;;;;;;38.67;33.33;;;;;10.12;75.80;99727.34;6318706;20;3607595;-47
2023/03/03 08:58:40;;;;;;;;;45.67;35.00;;;;;10.26;76.71;99722.03;6286146;20;2876315;-46
2023/03/03 09:01:27;;;;;;;;;46.50;38.00;;;;;10.44;76.46;99716.53;6311226;20;2846184;-46
2023/03/03 09:03:56;;;;;;;;;56.67;43.33;;;;;10.19;76.90;99718.00;6285414;20;3607560;-47
2023/03/03 09:06:25;;;;;;;;;51.00;40.00;;;;;9.83;78.93;99716.50;6313184;20;2848405;-48
2023/03/03 09:08:54;;;;;;;;;41.00;36.00;;;;;10.06;77.90;99720.53;6285271;20;2846221;-47
2023/03/03 09:11:29;;;;;;;;;44.50;38.50;;;;;10.52;76.70;99719.63;6282087;20;2848239;-49
2023/03/03 09:14:19;;;;;;;;;47.00;38.00;;;;;10.39;74.89;99719.50;6286512;20;2863888;-46
2023/03/03 09:16:55;;;;;;;;;47.33;37.67;;;;;10.88;74.27;99724.56;6316978;20;2853512;-48
2023/03/03 09:19:32;;;;;;;;;47.67;38.67;;;;;10.56;73.28;99723.88;6320609;20;3590892;-46
2023/03/03 09:22:24;;;;;;;;;48.33;38.00;;;;;10.19;74.56;99728.72;6284473;20;2858668;-48
2023/03/03 09:24:57;;;;;;;;;51.67;42.67;;;;;9.76;76.15;99725.84;6314446;20;2864932;-53
2023/03/03 09:27:32;;;;;;;;;43.50;39.00;;;;;9.93;76.50;99721.34;6315273;20;2838836;-51
2023/03/03 09:30:28;;;;;;;;;49.00;41.00;;;;;9.53;78.22;99723.63;6284968;20;2856545;-48
2023/03/03 09:32:57;;;;;;;;;60.67;46.67;;;;;10.20;76.84;99729.59;6282669;20;3623274;-51
2023/03/03 09:35:35;;;;;;;;;49.00;43.00;;;;;9.62;77.94;99729.34;6312836;20;2722250;-47
2023/03/03 09:38:30;;;;;;;;;57.00;42.33;;;;;9.75;78.46;99728.66;6313397;20;3630482;-47
2023/03/03 09:41:57;;;;;;;;;51.50;42.50;;;;;9.56;78.26;99726.16;6280685;20;2846146;-48
2023/03/03 09:45:19;;;;;;;;;57.33;43.00;;;;;9.41;78.40;99739.44;6284994;20;3618419;-47
2023/03/03 09:48:24;;;;;;;;;49.33;40.33;;;;;9.50;79.16;99727.34;6315831;20;2863945;-47
2023/03/03 09:51:17;;;;;;;;;56.00;40.00;;;;;9.38;78.06;99728.91;6313188;20;3633716;-48
2023/03/03 09:54:25;;;;;;;;;55.50;44.00;;;;;9.50;78.04;99730.03;6314652;20;2860791;-46
2023/03/03 09:57:13;;;;;;;;;43.33;38.00;;;;;9.94;76.98;99731.13;6281162;20;3611726;-47
2023/03/03 10:00:14;;;;;;;;;47.00;38.00;;;;;10.06;75.48;99731.28;6311367;20;2842026;-46
2023/03/03 10:03:38;;;;;;;;;55.33;43.33;;;;;10.51;75.26;99728.66;6281721;20;2869138;-48
2023/03/03 10:06:51;;;;;;;;;56.00;44.00;;;;;10.62;74.27;99726.16;6312408;20;3621135;-45
2023/03/03 10:09:49;;;;;;;;;53.33;43.00;;;;;11.47;72.30;99734.31;6312342;20;3618097;-46
2023/03/03 10:12:48;;;;;;;;;51.50;40.00;;;;;11.01;72.19;99732.72;6311448;20;2856535;-46
2023/03/03 10:16:07;;;;;;;;;54.67;41.67;;;;;11.16;73.26;99721.00;6282846;20;3626307;-49
2023/03/03 10:18:58;;;;;;;;;46.33;35.33;;;;;11.18;72.84;99712.84;6315808;20;3616970;-49
2023/03/03 10:21:49;;;;;;;;;43.00;35.00;;;;;11.16;73.32;99718.31;6314506;20;3620054;-48
2023/03/03 10:25:04;;;;;;;;;49.00;38.67;;;;;11.33;73.30;99713.69;6280468;20;2859829;-47
2023/03/03 10:28:32;;;;;;;;;38.00;31.00;;;;;11.44;72.58;99711.16;6314474;20;3609808;-49
2023/03/03 10:31:49;;;;;;;;;44.50;35.00;;;;;11.84;69.81;99700.47;6280886;20;2853449;-50
2023/03/03 10:34:46;;;;;;;;;35.33;29.00;;;;;11.35;71.35;99703.72;6285599;20;3610795;-49
2023/03/03 10:38:28;;;;;;;;;32.67;31.00;;;;;11.60;71.55;99697.59;6285642;20;3567962;-47
2023/03/03 10:41:54;;;;;;;;;34.33;32.00;;;;;11.67;70.43;99695.38;6277293;20;3612765;-46
2023/03/03 10:44:44;;;;;;;;;35.33;29.33;;;;;10.99;72.21;99691.66;6313571;20;3607568;-50
2023/03/03 10:47:58;;;;;;;;;37.67;31.33;;;;;11.39;72.36;99691.78;6279471;20;3615933;-46
2023/03/03 10:51:04;;;;;;;;;32.67;30.33;;;;;11.79;71.14;99694.53;6310899;20;3616977;-46
2023/03/03 10:54:16;;;;;;;;;27.00;26.33;;;;;12.13;69.37;99687.78;6282730;20;3580600;-48
2023/03/03 10:57:42;;;;;;;;;33.33;28.67;;;;;11.88;69.97;99688.59;6283473;20;3600286;-48
2023/03/03 11:00:30;;;;;;;;;28.33;26.67;;;;;11.85;69.59;99691.47;6280437;20;3602383;-49
2023/03/03 11:03:23;;;;;;;;;26.33;26.33;;;;;11.82;70.29;99688.94;6312434;20;3586707;-47
2023/03/03 11:06:05;;;;;;;;;31.00;29.33;;;;;12.42;69.17;99685.78;6286988;20;3614932;-49
2023/03/03 11:09:07;;;;;;;;;33.67;28.33;;;;;12.10;69.85;99674.53;6281315;20;3597124;-49
2023/03/03 11:12:22;;;;;;;;;27.00;24.00;;;;;11.86;69.47;99682.44;6306882;20;2837934;-46
2023/03/03 11:16:04;;;;;;;;;30.50;26.00;;;;;11.45;70.91;99669.88;6281054;20;2845116;-46
2023/03/03 11:19:10;;;;;;;;;33.33;28.00;;;;;12.18;68.75;99668.63;6285916;20;3604485;-47
2023/03/03 11:22:09;;;;;;;;;29.67;27.67;;;;;11.39;71.65;99668.44;6284469;20;3593996;-46
2023/03/03 11:24:59;;;;;;;;;29.67;27.67;;;;;12.17;69.31;99665.09;6280597;20;3609768;-48
2023/03/03 11:28:14;;;;;;;;;32.00;27.33;;;;;11.60;70.46;99660.78;6318670;20;2858754;-48
2023/03/03 11:31:12;;;;;;;;;29.00;27.67;;;;;11.40;70.82;99661.22;6318767;20;3579487;-46
2023/03/03 11:34:36;;;;;;;;;28.67;26.67;;;;;11.47;70.78;99650.97;6282454;20;2848322;-47
2023/03/03 11:37:22;;;;;;;;;24.00;21.50;;;;;11.20;71.07;99657.16;6315902;20;2838852;-46
2023/03/03 11:40:00;;;;;;;;;34.67;29.00;;;;;11.40;71.15;99658.53;6285377;20;3620116;-49
2023/03/03 11:43:03;;;;;;;;;32.00;28.00;;;;;12.17;69.03;99654.31;6317617;20;3603446;-46
2023/03/03 11:45:50;;;;;;;;;27.50;27.50;;;;;12.93;66.56;99656.16;6284513;20;2845111;-48
2023/03/03 11:48:34;;;;;;;;;32.67;28.67;;;;;12.72;65.41;99649.59;6284151;20;3604409;-46
2023/03/03 11:51:14;;;;;;;;;30.33;25.00;;;;;13.14;64.70;99640.25;6286601;20;3610766;-47
2023/03/03 11:54:16;;;;;;;;;28.00;23.50;;;;;13.17;63.41;99637.34;6284288;20;2832713;-48
2023/03/03 11:56:47;;;;;;;;;25.33;25.33;;;;;13.36;62.92;99634.16;6284709;20;2846191;-47